Time;durP1;ratioP1;P1;durP2;ratioP2;P2;SDS_P1;SDS_P2;PMS_P1;PMS_P2;Temp;Humidity;BMP_temperature;BMP_pressure;BME280_temperature;BME280_humidity;BME280_pressure;Samples;Min_cycle;Max_cycle;Signal;HPM_P1;HPM_P2
2021/06/23 00:01:20;;;;;;;13.27;6.18;;;15.90;99.90;;;;;;5074413;28;20032;-81
2021/06/23 00:03:46;;;;;;;8.20;5.10;;;15.90;99.90;;;;;;5074667;28;20036;-84
2021/06/23 00:06:12;;;;;;;6.93;5.50;;;15.90;99.90;;;;;;5074929;28;20052;-81
2021/06/23 00:08:37;;;;;;;8.85;4.93;;;15.90;99.90;;;;;;5074959;28;20099;-81
2021/06/23 00:11:04;;;;;;;5.03;4.50;;;15.90;99.90;;;;;;5073391;28;20025;-84
2021/06/23 00:13:35;;;;;;;6.63;4.57;;;15.90;99.90;;;;;;5073942;28;20028;-82
2021/06/23 00:16:04;;;;;;;6.28;4.57;;;15.90;99.90;;;;;;5073963;28;20502;-82
2021/06/23 00:18:30;;;;;;;4.80;4.28;;;15.90;99.90;;;;;;5073140;28;20029;-84
2021/06/23 00:20:56;;;;;;;5.60;4.38;;;15.90;99.90;;;;;;5074566;28;20103;-85
2021/06/23 00:23:22;;;;;;;4.78;3.80;;;15.90;99.90;;;;;;5072872;28;20530;-82
2021/06/23 00:25:47;;;;;;;5.20;4.00;;;15.90;99.90;;;;;;5074286;28;20055;-81
2021/06/23 00:28:13;;;;;;;7.35;3.80;;;15.90;99.90;;;;;;5074473;28;20399;-82
2021/06/23 00:30:39;;;;;;;5.88;4.10;;;15.90;99.90;;;;;;5074150;28;20025;-85
2021/06/23 00:33:08;;;;;;;5.18;3.65;;;15.90;99.90;;;;;;5074076;28;20044;-82
2021/06/23 00:35:35;;;;;;;5.38;3.80;;;15.90;99.90;;;;;;5071607;28;20145;-82
2021/06/23 00:38:02;;;;;;;4.78;3.70;;;15.80;99.90;;;;;;5074210;28;20032;-82
2021/06/23 00:40:29;;;;;;;6.78;3.85;;;15.90;99.90;;;;;;5074075;28;20462;-85
2021/06/23 00:42:55;;;;;;;5.20;3.85;;;15.90;99.90;;;;;;5073779;28;20016;-82
2021/06/23 00:45:21;;;;;;;4.10;3.67;;;15.80;99.90;;;;;;5072550;28;20035;-85
2021/06/23 00:47:48;;;;;;;6.68;3.70;;;15.80;99.90;;;;;;5069533;28;20029;-82
2021/06/23 00:50:17;;;;;;;5.00;3.75;;;15.80;99.90;;;;;;5073889;28;20104;-85
2021/06/23 00:52:43;;;;;;;5.72;3.55;;;15.80;99.90;;;;;;5073693;28;20016;-82
2021/06/23 00:55:10;;;;;;;6.72;4.28;;;15.70;99.90;;;;;;5073722;28;20475;-81
2021/06/23 00:57:39;;;;;;;4.28;3.65;;;15.70;99.90;;;;;;5073891;28;20402;-82
2021/06/23 01:00:06;;;;;;;4.32;3.55;;;15.70;99.90;;;;;;5073296;28;20028;-81
2021/06/23 01:02:33;;;;;;;5.57;4.00;;;15.70;99.90;;;;;;5073401;28;20142;-82
2021/06/23 01:04:59;;;;;;;5.88;4.00;;;15.70;99.90;;;;;;5073485;28;20445;-82
2021/06/23 01:07:25;;;;;;;4.18;3.83;;;15.60;99.90;;;;;;5072611;28;20025;-82
2021/06/23 01:09:57;;;;;;;6.15;3.72;;;15.60;99.90;;;;;;5070816;28;20028;-85
2021/06/23 01:12:26;;;;;;;5.43;3.90;;;15.60;99.90;;;;;;5073394;28;20030;-84
2021/06/23 01:15:00;;;;;;;6.15;4.20;;;15.60;99.90;;;;;;5072585;28;20034;-82
2021/06/23 01:17:28;;;;;;;9.45;4.18;;;15.60;99.90;;;;;;5070487;28;20036;-81
2021/06/23 01:20:05;;;;;;;8.43;4.28;;;15.60;99.90;;;;;;5073302;28;20107;-82
2021/06/23 01:22:37;;;;;;;6.85;4.00;;;15.70;99.90;;;;;;5073388;28;20024;-85
2021/06/23 01:25:04;;;;;;;5.90;3.72;;;15.70;99.90;;;;;;5072989;28;20021;-85
2021/06/23 01:27:30;;;;;;;4.32;3.92;;;15.70;99.90;;;;;;5073223;28;20025;-85
2021/06/23 01:29:57;;;;;;;4.95;3.90;;;15.80;99.90;;;;;;5072927;28;20737;-82
2021/06/23 01:32:22;;;;;;;4.05;3.40;;;15.80;99.90;;;;;;5072892;28;20052;-82
2021/06/23 01:34:48;;;;;;;6.85;4.05;;;15.80;99.90;;;;;;5071283;28;20117;-85
2021/06/23 01:37:13;;;;;;;4.57;3.70;;;15.80;99.90;;;;;;5071786;28;20032;-85
2021/06/23 01:39:39;;;;;;;4.00;3.60;;;15.80;99.90;;;;;;5072599;28;20028;-82
2021/06/23 01:42:05;;;;;;;4.15;3.65;;;15.80;99.90;;;;;;5072753;28;20450;-86
2021/06/23 01:47:06;;;;;;;3.60;3.30;;;15.80;99.90;;;;;;5315440;22;20065;-81
2021/06/23 01:49:32;;;;;;;8.85;3.80;;;15.80;99.90;;;;;;5071520;28;20032;-84
2021/06/23 01:51:57;;;;;;;7.88;3.40;;;15.80;99.90;;;;;;5055322;28;20458;-84
2021/06/23 01:54:23;;;;;;;10.77;3.90;;;15.80;99.90;;;;;;5054584;28;20123;-81
2021/06/23 01:56:49;;;;;;;7.70;3.85;;;15.90;99.90;;;;;;5071725;28;20028;-84
2021/06/23 01:59:15;;;;;;;5.72;3.63;;;15.80;99.90;;;;;;5054867;28;20051;-81
2021/06/23 02:02:04;;;;;;;5.00;3.78;;;15.80;99.90;;;;;;5053131;28;20407;-82
2021/06/23 02:04:42;;;;;;;4.35;3.90;;;15.70;99.90;;;;;;5052950;28;20028;-81
2021/06/23 02:07:23;;;;;;;6.45;4.32;;;15.70;99.90;;;;;;5053297;28;20025;-80
2021/06/23 02:10:20;;;;;;;6.45;4.20;;;15.70;99.90;;;;;;5052503;28;20514;-84
2021/06/23 02:13:07;;;;;;;5.20;4.43;;;15.60;99.90;;;;;;5052416;28;20112;-84
2021/06/23 02:15:39;;;;;;;8.30;5.00;;;15.60;99.90;;;;;;5034123;28;20087;-83
2021/06/23 02:18:07;;;;;;;10.50;5.18;;;15.60;99.90;;;;;;5050674;28;20029;-84
2021/06/23 02:20:34;;;;;;;7.63;5.60;;;15.60;99.90;;;;;;5052289;28;20047;-81
2021/06/23 02:23:07;;;;;;;8.90;5.78;;;15.60;99.90;;;;;;5052781;28;20025;-81
2021/06/23 02:25:33;;;;;;;8.02;5.95;;;15.60;99.90;;;;;;5032973;28;20071;-80
2021/06/23 02:27:59;;;;;;;6.40;5.53;;;15.60;99.90;;;;;;5032240;28;20464;-84
2021/06/23 02:30:25;;;;;;;10.65;6.45;;;15.50;99.90;;;;;;5014851;28;20040;-81
2021/06/23 02:32:54;;;;;;;7.80;6.60;;;15.50;99.90;;;;;;5014837;28;20029;-84
2021/06/23 02:35:24;;;;;;;6.05;5.35;;;15.50;99.90;;;;;;5015196;28;20029;-81
2021/06/23 02:37:50;;;;;;;7.45;5.90;;;15.50;99.90;;;;;;5052898;28;20502;-81
2021/06/23 02:40:18;;;;;;;10.55;6.35;;;15.50;99.90;;;;;;5034634;28;20039;-81
2021/06/23 02:42:44;;;;;;;8.68;7.03;;;15.60;99.90;;;;;;5051195;28;20025;-84
2021/06/23 02:45:11;;;;;;;9.15;6.80;;;15.70;99.90;;;;;;5052389;28;20476;-80
2021/06/23 02:47:37;;;;;;;8.13;7.20;;;15.70;99.90;;;;;;5046682;28;20048;-84
2021/06/23 02:50:04;;;;;;;12.63;7.85;;;15.70;99.90;;;;;;5031222;28;20034;-81
2021/06/23 02:52:33;;;;;;;11.18;8.50;;;15.80;99.90;;;;;;5031349;28;20022;-81
2021/06/23 02:55:00;;;;;;;10.85;7.95;;;15.80;99.90;;;;;;5032753;28;20041;-84
2021/06/23 02:57:26;;;;;;;12.07;8.23;;;15.80;99.90;;;;;;5030221;28;20033;-84
2021/06/23 02:59:53;;;;;;;12.35;8.27;;;15.80;99.90;;;;;;5034956;28;20036;-84
2021/06/23 03:02:19;;;;;;;11.73;8.55;;;15.90;99.90;;;;;;5067549;28;20427;-84
2021/06/23 03:04:46;;;;;;;11.15;8.32;;;15.90;99.90;;;;;;5051052;28;20116;-83
2021/06/23 03:07:12;;;;;;;10.27;8.82;;;15.90;99.90;;;;;;5030977;28;20025;-81
2021/06/23 03:09:38;;;;;;;14.63;8.90;;;15.90;99.90;;;;;;5032443;28;20025;-81
2021/06/23 03:12:06;;;;;;;12.18;9.50;;;15.80;99.90;;;;;;5032818;28;20081;-81
2021/06/23 03:14:32;;;;;;;19.98;9.88;;;15.90;99.90;;;;;;5052382;28;20087;-81
2021/06/23 03:16:58;;;;;;;14.20;10.18;;;15.80;99.90;;;;;;5067732;28;20037;-84
2021/06/23 03:19:24;;;;;;;13.00;9.85;;;15.70;99.90;;;;;;5050266;28;20552;-83
2021/06/23 03:21:51;;;;;;;14.95;9.65;;;15.70;99.90;;;;;;5067902;28;20032;-80
2021/06/23 03:24:16;;;;;;;14.63;10.02;;;15.60;99.90;;;;;;5052553;28;20083;-84
2021/06/23 03:26:42;;;;;;;13.90;9.43;;;15.60;99.90;;;;;;5051044;28;20020;-84
2021/06/23 03:29:29;;;;;;;15.77;9.90;;;15.60;99.90;;;;;;5067145;28;20025;-84
2021/06/23 03:31:56;;;;;;;13.77;9.55;;;15.60;99.90;;;;;;5054742;28;20108;-81
2021/06/23 03:34:22;;;;;;;13.18;9.27;;;15.60;99.90;;;;;;5055773;28;20025;-82
2021/06/23 03:36:48;;;;;;;20.27;9.63;;;15.70;99.90;;;;;;5054296;28;20372;-84
2021/06/23 03:39:13;;;;;;;14.93;9.40;;;15.80;99.90;;;;;;5070970;28;20035;-81
2021/06/23 03:41:39;;;;;;;15.25;9.18;;;15.80;99.90;;;;;;5046313;28;20447;-84
2021/06/23 03:44:05;;;;;;;11.63;8.80;;;15.80;99.90;;;;;;5034080;28;20466;-84
2021/06/23 03:46:30;;;;;;;20.48;8.35;;;15.80;99.90;;;;;;5055904;28;20466;-80
2021/06/23 03:48:57;;;;;;;15.77;8.60;;;15.90;99.90;;;;;;5049428;28;20150;-84
2021/06/23 03:51:24;;;;;;;12.30;8.48;;;15.90;99.90;;;;;;5055216;28;20067;-81
2021/06/23 03:53:49;;;;;;;14.70;8.45;;;15.90;99.90;;;;;;5070958;28;20557;-84
2021/06/23 03:56:15;;;;;;;17.13;9.13;;;16.00;99.90;;;;;;5054094;28;20113;-81
2021/06/23 03:58:42;;;;;;;14.80;8.70;;;15.90;99.90;;;;;;5055102;28;20078;-84
2021/06/23 04:01:08;;;;;;;14.63;8.43;;;16.00;99.90;;;;;;5040144;28;20056;-83
2021/06/23 04:03:34;;;;;;;11.63;8.95;;;16.00;99.90;;;;;;5035100;28;20022;-84
2021/06/23 04:05:59;;;;;;;21.13;8.73;;;16.00;99.90;;;;;;5035218;28;20045;-81
2021/06/23 04:08:25;;;;;;;12.95;8.80;;;15.90;99.90;;;;;;5033820;28;20033;-84
2021/06/23 04:10:51;;;;;;;15.10;8.20;;;15.90;99.90;;;;;;5033943;28;20144;-81
2021/06/23 04:13:16;;;;;;;17.63;9.38;;;16.00;99.90;;;;;;5034588;28;20030;-84
2021/06/23 04:15:42;;;;;;;12.88;8.35;;;16.00;99.90;;;;;;5049971;28;20152;-80
2021/06/23 04:18:08;;;;;;;16.08;9.35;;;15.90;99.90;;;;;;5045641;28;20026;-81
2021/06/23 04:20:34;;;;;;;15.13;9.13;;;16.00;99.90;;;;;;5034837;28;20029;-81
2021/06/23 04:22:59;;;;;;;13.73;9.20;;;16.00;99.90;;;;;;5037287;28;20025;-81
2021/06/23 04:25:25;;;;;;;13.35;9.00;;;16.00;99.90;;;;;;5070263;28;20036;-83
2021/06/23 04:27:50;;;;;;;11.75;8.80;;;16.00;99.90;;;;;;5070332;28;20029;-84
2021/06/23 04:30:17;;;;;;;12.23;8.55;;;16.00;99.90;;;;;;5054567;28;20039;-84
2021/06/23 04:32:43;;;;;;;13.55;9.93;;;16.00;99.90;;;;;;5053791;28;20025;-80
2021/06/23 04:35:10;;;;;;;13.55;9.63;;;16.00;99.90;;;;;;5054680;28;20029;-84
2021/06/23 04:37:39;;;;;;;15.32;9.52;;;16.00;99.90;;;;;;5053356;28;20380;-80
2021/06/23 04:40:07;;;;;;;18.42;9.27;;;16.00;99.90;;;;;;5054730;28;20108;-84
2021/06/23 04:42:33;;;;;;;15.00;9.23;;;16.00;99.90;;;;;;5049049;28;20127;-80
2021/06/23 04:44:58;;;;;;;16.70;9.70;;;16.10;99.90;;;;;;5049696;28;20104;-81
2021/06/23 04:47:24;;;;;;;19.20;9.70;;;16.10;99.90;;;;;;5025185;28;20088;-81
2021/06/23 04:49:50;;;;;;;10.35;7.85;;;16.10;99.90;;;;;;5052894;28;20021;-81
2021/06/23 04:52:16;;;;;;;13.73;9.75;;;16.20;99.90;;;;;;5054359;28;20056;-85
2021/06/23 04:54:42;;;;;;;11.68;8.68;;;16.20;99.90;;;;;;5054393;28;20135;-84
2021/06/23 04:57:07;;;;;;;13.82;10.57;;;16.30;99.90;;;;;;5054077;28;20029;-80
2021/06/23 04:59:33;;;;;;;22.60;12.23;;;16.30;99.90;;;;;;5053604;28;20032;-84
2021/06/23 05:01:59;;;;;;;22.27;13.65;;;16.30;99.90;;;;;;5032570;28;20104;-85
2021/06/23 05:04:24;;;;;;;23.10;14.38;;;16.20;99.90;;;;;;5033707;28;20047;-84
2021/06/23 05:06:50;;;;;;;24.45;14.65;;;16.20;99.90;;;;;;5034432;28;20021;-80
2021/06/23 05:09:16;;;;;;;27.70;16.58;;;16.10;99.90;;;;;;5032631;28;20036;-84
2021/06/23 05:11:41;;;;;;;27.60;17.08;;;16.00;99.90;;;;;;5032569;28;20029;-85
2021/06/23 05:14:08;;;;;;;29.25;16.20;;;16.00;99.90;;;;;;5037295;28;20083;-84
2021/06/23 05:16:37;;;;;;;28.27;17.50;;;16.00;99.90;;;;;;5052582;28;20032;-80
2021/06/23 05:19:03;;;;;;;51.13;17.73;;;16.00;99.90;;;;;;5035136;28;20400;-81
2021/06/23 05:21:32;;;;;;;27.42;16.88;;;16.00;99.90;;;;;;5032372;28;20439;-80
2021/06/23 05:23:58;;;;;;;26.63;17.15;;;16.00;99.90;;;;;;5036152;28;20021;-80
2021/06/23 05:26:24;;;;;;;29.42;17.27;;;16.00;99.90;;;;;;5032545;28;20075;-84
2021/06/23 05:28:50;;;;;;;22.35;15.50;;;16.00;99.90;;;;;;5033697;28;20423;-84
2021/06/23 05:31:15;;;;;;;24.02;16.38;;;16.10;99.90;;;;;;5035033;28;20526;-81
2021/06/23 05:33:41;;;;;;;23.77;15.90;;;16.10;99.90;;;;;;5031836;28;20033;-80
2021/06/23 05:36:07;;;;;;;25.45;15.85;;;16.00;99.90;;;;;;5031836;28;20136;-80
2021/06/23 05:38:35;;;;;;;22.92;15.18;;;16.10;99.90;;;;;;5032101;28;20065;-80
2021/06/23 05:41:02;;;;;;;24.95;14.65;;;16.10;99.90;;;;;;5016848;28;20051;-85
2021/06/23 05:43:28;;;;;;;19.95;14.75;;;16.10;99.90;;;;;;5027782;28;20472;-80
2021/06/23 05:45:54;;;;;;;20.30;15.23;;;16.10;99.90;;;;;;5011814;28;20414;-81
2021/06/23 05:48:20;;;;;;;21.85;15.43;;;16.10;99.90;;;;;;5007915;28;20125;-85
2021/06/23 05:50:45;;;;;;;24.40;14.68;;;16.10;99.90;;;;;;4992187;28;20497;-80
2021/06/23 05:53:11;;;;;;;20.58;15.43;;;16.10;99.90;;;;;;4991945;28;20034;-84
2021/06/23 05:55:39;;;;;;;22.67;16.77;;;16.10;99.90;;;;;;4992303;28;20113;-81
2021/06/23 05:58:05;;;;;;;19.67;15.35;;;16.10;99.90;;;;;;4991705;28;20034;-80
2021/06/23 06:00:31;;;;;;;22.58;15.93;;;16.20;99.90;;;;;;5009312;28;20076;-80
2021/06/23 06:02:56;;;;;;;23.38;15.88;;;16.20;99.90;;;;;;5027253;28;20485;-80
2021/06/23 06:05:22;;;;;;;22.20;15.73;;;16.20;99.90;;;;;;5011643;28;20034;-80
2021/06/23 06:07:49;;;;;;;21.73;15.63;;;16.10;99.90;;;;;;5010886;28;20025;-79
2021/06/23 06:10:15;;;;;;;18.92;13.85;;;16.10;99.90;;;;;;5015844;28;20041;-80
2021/06/23 06:12:41;;;;;;;26.20;14.63;;;16.20;99.90;;;;;;5011217;28;20029;-80
2021/06/23 06:15:07;;;;;;;20.33;13.90;;;16.20;99.90;;;;;;5020657;28;20149;-80
2021/06/23 06:17:32;;;;;;;18.25;13.82;;;16.30;99.90;;;;;;5015382;28;20084;-80
2021/06/23 06:19:58;;;;;;;17.02;14.52;;;16.30;99.90;;;;;;4992703;28;20034;-84
2021/06/23 06:22:24;;;;;;;19.10;13.15;;;16.30;99.90;;;;;;5005650;28;20022;-83
2021/06/23 06:24:50;;;;;;;18.67;13.13;;;16.30;99.90;;;;;;5015359;28;20025;-79
2021/06/23 06:27:16;;;;;;;17.77;12.90;;;16.40;99.90;;;;;;5011092;28;20030;-83
2021/06/23 06:29:41;;;;;;;15.90;12.45;;;16.50;99.90;;;;;;5010652;28;20044;-80
2021/06/23 06:32:07;;;;;;;17.67;11.82;;;16.50;99.90;;;;;;5010285;28;20515;-79
2021/06/23 06:34:33;;;;;;;14.98;10.90;;;16.60;99.90;;;;;;5007941;28;20080;-84
2021/06/23 06:36:59;;;;;;;11.65;10.45;;;16.60;99.90;;;;;;5024510;28;20065;-84
2021/06/23 06:39:24;;;;;;;15.05;10.05;;;16.60;99.90;;;;;;5025758;28;20038;-80
2021/06/23 06:41:50;;;;;;;15.23;10.38;;;16.70;99.90;;;;;;4997100;28;20054;-83
2021/06/23 06:44:16;;;;;;;11.05;9.77;;;16.70;99.90;;;;;;4994432;28;20393;-84
2021/06/23 06:46:42;;;;;;;13.35;9.98;;;16.70;99.90;;;;;;5004442;28;20046;-84
2021/06/23 06:49:08;;;;;;;13.85;9.25;;;16.70;99.90;;;;;;5002812;28;20109;-79
2021/06/23 06:51:34;;;;;;;18.25;10.32;;;16.80;99.90;;;;;;5004993;28;20122;-80
2021/06/23 06:53:59;;;;;;;15.52;9.88;;;16.90;99.90;;;;;;5005220;28;20034;-84
2021/06/23 06:56:25;;;;;;;12.55;10.57;;;17.00;99.90;;;;;;5011677;28;20380;-83
2021/06/23 06:58:51;;;;;;;12.65;10.82;;;17.00;99.90;;;;;;5011083;28;20481;-81
2021/06/23 07:01:17;;;;;;;13.45;10.10;;;17.00;99.90;;;;;;5007122;28;20023;-82
2021/06/23 07:03:42;;;;;;;11.98;9.45;;;17.00;99.90;;;;;;5016340;28;20033;-85
2021/06/23 07:06:08;;;;;;;14.07;9.93;;;17.10;99.90;;;;;;5006522;28;20481;-83
2021/06/23 07:08:34;;;;;;;19.42;11.85;;;17.10;99.90;;;;;;5012142;28;20041;-80
2021/06/23 07:10:59;;;;;;;22.58;12.43;;;16.90;99.90;;;;;;5014512;28;20033;-83
2021/06/23 07:13:25;;;;;;;23.30;12.80;;;16.80;99.90;;;;;;5009533;28;20092;-81
2021/06/23 07:15:51;;;;;;;21.85;13.20;;;16.70;99.90;;;;;;5013504;28;20121;-81
2021/06/23 07:18:16;;;;;;;18.92;13.10;;;16.50;99.90;;;;;;5011913;28;20137;-85
2021/06/23 07:20:42;;;;;;;19.42;12.48;;;16.50;99.90;;;;;;5014256;28;20022;-81
2021/06/23 07:23:07;;;;;;;19.27;11.90;;;16.50;99.90;;;;;;5003120;28;20030;-83
2021/06/23 07:25:33;;;;;;;18.17;12.80;;;16.50;99.90;;;;;;5011490;28;20503;-84
2021/06/23 07:27:59;;;;;;;18.88;12.05;;;16.50;99.90;;;;;;5011871;28;20496;-82
2021/06/23 07:30:25;;;;;;;15.63;12.38;;;16.60;99.90;;;;;;5008865;28;20026;-85
2021/06/23 07:32:54;;;;;;;21.95;13.02;;;16.60;99.90;;;;;;5005844;28;20503;-84
2021/06/23 07:38:07;;;;;;;20.27;13.48;;;16.50;99.90;;;;;;5014508;28;20475;-83
2021/06/23 07:41:00;;;;;;;18.80;13.20;;;16.60;99.90;;;;;;5011813;28;20025;-84
2021/06/23 07:43:26;;;;;;;18.45;12.95;;;16.70;99.90;;;;;;5007287;28;20030;-83
2021/06/23 07:45:53;;;;;;;18.88;13.45;;;16.70;99.90;;;;;;5013052;28;20485;-85
2021/06/23 07:48:26;;;;;;;19.90;12.68;;;16.70;99.90;;;;;;5006258;28;20022;-86
2021/06/23 07:51:08;;;;;;;21.35;13.95;;;16.80;99.90;;;;;;5013916;28;20156;-84
2021/06/23 08:09:41;;;;;;;18.63;11.82;;;16.70;99.90;;;;;;5015567;28;20034;-82
2021/06/23 08:12:25;;;;;;;17.95;11.68;;;16.70;99.90;;;;;;5011527;28;20034;-81
2021/06/23 08:14:51;;;;;;;13.13;10.05;;;16.90;99.90;;;;;;5020646;28;20425;-82
2021/06/23 08:17:17;;;;;;;14.05;9.93;;;17.00;99.90;;;;;;5007938;28;20381;-81
2021/06/23 08:19:43;;;;;;;13.23;8.95;;;17.10;99.90;;;;;;5002083;28;20034;-81
2021/06/23 08:22:11;;;;;;;12.57;8.50;;;17.20;99.90;;;;;;5012252;28;20023;-83
2021/06/23 08:24:38;;;;;;;11.50;8.13;;;17.50;99.90;;;;;;5011179;28;20404;-85
2021/06/23 08:27:05;;;;;;;10.55;8.23;;;17.60;99.90;;;;;;5020152;28;20439;-82
2021/06/23 08:29:30;;;;;;;14.02;8.52;;;17.70;99.90;;;;;;5008043;28;20041;-86
2021/06/23 08:31:56;;;;;;;12.30;7.80;;;17.80;99.90;;;;;;5026840;28;20034;-83
2021/06/23 08:34:25;;;;;;;10.40;8.57;;;17.60;99.90;;;;;;5005517;28;20056;-84
2021/06/23 08:36:51;;;;;;;14.52;9.70;;;17.70;99.90;;;;;;5010452;28;20065;-86
2021/06/23 08:39:17;;;;;;;16.67;10.63;;;17.70;99.90;;;;;;4997900;28;20078;-87
2021/06/23 08:41:43;;;;;;;16.60;10.35;;;17.60;99.90;;;;;;5018339;28;20101;-84
2021/06/23 08:44:08;;;;;;;12.38;9.95;;;17.40;99.90;;;;;;5012505;28;20113;-83
2021/06/23 08:46:38;;;;;;;14.98;9.95;;;17.50;99.90;;;;;;5008058;28;20125;-82
2021/06/23 08:49:04;;;;;;;16.02;10.85;;;17.50;99.90;;;;;;5026181;28;20072;-83
2021/06/23 08:51:31;;;;;;;14.55;11.00;;;17.40;99.90;;;;;;5012829;28;20038;-84
2021/06/23 08:53:56;;;;;;;11.93;10.30;;;17.50;99.90;;;;;;5012595;28;20131;-82
2021/06/23 08:56:22;;;;;;;18.35;12.27;;;17.50;99.90;;;;;;5004836;28;20113;-81
2021/06/23 08:58:48;;;;;;;15.35;12.63;;;17.50;99.90;;;;;;5001654;28;20061;-83
2021/06/23 09:01:14;;;;;;;19.33;11.85;;;17.50;99.90;;;;;;5007761;28;20026;-86
2021/06/23 09:04:03;;;;;;;13.68;10.45;;;17.50;99.90;;;;;;5007879;28;20030;-82
2021/06/23 09:06:51;;;;;;;18.90;12.40;;;17.60;99.90;;;;;;5014216;28;20121;-82
2021/06/23 09:09:21;;;;;;;13.88;10.63;;;17.60;99.90;;;;;;5012010;28;20030;-85
2021/06/23 09:11:48;;;;;;;15.45;10.90;;;17.70;99.90;;;;;;5012827;28;20026;-83
2021/06/23 09:14:17;;;;;;;16.50;11.70;;;17.70;99.90;;;;;;5007734;28;20058;-83
2021/06/23 09:17:21;;;;;;;16.48;11.82;;;17.70;99.90;;;;;;5011812;28;20562;-82
2021/06/23 09:19:50;;;;;;;18.13;12.00;;;17.70;99.90;;;;;;5007389;28;20069;-86
2021/06/23 09:22:54;;;;;;;16.00;12.73;;;17.80;99.90;;;;;;5008199;28;20046;-82
2021/06/23 09:25:20;;;;;;;16.63;13.40;;;17.70;99.90;;;;;;4933833;29;20027;-83
2021/06/23 09:27:52;;;;;;;18.15;12.65;;;17.80;99.90;;;;;;4951415;28;20042;-83
2021/06/23 09:30:35;;;;;;;14.77;12.15;;;18.00;99.90;;;;;;4951491;29;20117;-83
2021/06/23 09:33:12;;;;;;;19.55;11.25;;;18.00;99.90;;;;;;4945576;28;20138;-82
2021/06/23 09:35:44;;;;;;;15.60;11.48;;;18.00;99.90;;;;;;4948754;28;20219;-82
2021/06/23 09:38:32;;;;;;;16.48;11.77;;;17.90;99.90;;;;;;4949504;28;20031;-81
2021/06/23 09:40:59;;;;;;;15.70;11.32;;;17.80;99.90;;;;;;4933356;29;20043;-81
2021/06/23 09:43:38;;;;;;;18.17;12.20;;;17.70;99.90;;;;;;4944303;29;20048;-82
2021/06/23 09:46:37;;;;;;;16.60;12.07;;;17.50;99.90;;;;;;4932955;29;20042;-82
2021/06/23 09:49:20;;;;;;;17.23;12.60;;;17.60;99.90;;;;;;4927401;29;20038;-82
2021/06/23 09:51:46;;;;;;;17.45;12.75;;;17.60;99.90;;;;;;4945265;29;20023;-82
2021/06/23 09:54:14;;;;;;;22.30;14.82;;;17.70;99.90;;;;;;4951207;29;20066;-80
2021/06/23 09:56:46;;;;;;;24.58;14.35;;;17.80;99.90;;;;;;4994908;28;20073;-82
2021/06/23 09:59:55;;;;;;;21.50;14.43;;;17.60;99.90;;;;;;5012050;28;20050;-83
2021/06/23 10:02:28;;;;;;;17.67;12.57;;;17.40;99.90;;;;;;4984841;28;20049;-82
2021/06/23 10:04:56;;;;;;;24.00;14.57;;;17.50;99.90;;;;;;5018109;28;20377;-84
2021/06/23 10:07:45;;;;;;;23.55;14.05;;;17.40;99.90;;;;;;5008566;28;20029;-84
2021/06/23 10:10:16;;;;;;;18.40;13.65;;;17.30;99.90;;;;;;5001432;28;20423;-83
2021/06/23 10:12:41;;;;;;;24.10;14.65;;;17.30;99.90;;;;;;5001453;28;20030;-84
2021/06/23 10:15:08;;;;;;;20.98;13.90;;;17.40;99.90;;;;;;5007453;28;20030;-81
2021/06/23 10:17:34;;;;;;;21.90;14.55;;;17.50;99.90;;;;;;5028224;28;20029;-83
2021/06/23 10:20:02;;;;;;;25.88;13.35;;;17.40;99.90;;;;;;5019467;28;20039;-82
2021/06/23 10:22:28;;;;;;;19.77;13.85;;;17.50;99.90;;;;;;5000716;28;20089;-83
2021/06/23 10:24:55;;;;;;;23.05;14.63;;;17.50;99.90;;;;;;5010508;28;20049;-82
2021/06/23 10:27:23;;;;;;;20.35;15.40;;;17.50;99.90;;;;;;5010225;28;20509;-86
2021/06/23 10:29:53;;;;;;;23.20;15.80;;;17.40;99.90;;;;;;5009474;28;20108;-85
2021/06/23 10:32:20;;;;;;;24.50;16.13;;;17.30;99.90;;;;;;5013211;28;20064;-83
2021/06/23 10:34:46;;;;;;;28.92;15.48;;;17.40;99.90;;;;;;5007027;28;20132;-81
2021/06/23 10:37:14;;;;;;;21.38;15.05;;;17.40;99.90;;;;;;5011450;28;20026;-82
2021/06/23 10:39:41;;;;;;;21.33;13.70;;;17.60;99.90;;;;;;5009173;28;20037;-83
2021/06/23 10:42:08;;;;;;;18.38;13.57;;;17.70;99.90;;;;;;5012553;28;20065;-83
2021/06/23 10:44:43;;;;;;;18.70;13.65;;;17.80;99.90;;;;;;5016773;28;20025;-84
2021/06/23 10:47:26;;;;;;;20.80;15.35;;;17.80;99.90;;;;;;5016975;28;20038;-84
2021/06/23 10:49:53;;;;;;;;;;;17.80;99.90;;;;;;5017038;28;20045;-82
2021/06/23 10:52:22;;;;;;;17.13;13.48;;;17.80;99.90;;;;;;5033776;28;19956;-84
2021/06/23 10:54:55;;;;;;;15.88;13.45;;;17.80;99.90;;;;;;5016634;28;20026;-83
2021/06/23 10:57:31;;;;;;;18.58;12.88;;;17.90;99.90;;;;;;5015517;28;20041;-84
2021/06/23 11:00:11;;;;;;;19.60;13.23;;;18.10;99.90;;;;;;5019071;28;20464;-84
2021/06/23 11:02:40;;;;;;;16.65;13.48;;;18.10;99.90;;;;;;5025233;28;20451;-83
2021/06/23 11:05:12;;;;;;;18.83;14.55;;;18.20;99.90;;;;;;5020735;28;20037;-83
2021/06/23 11:07:38;;;;;;;16.10;13.55;;;18.30;99.90;;;;;;5024373;28;20164;-83
2021/06/23 11:10:13;;;;;;;18.88;14.25;;;18.40;99.90;;;;;;5025760;28;20029;-83
2021/06/23 11:12:51;;;;;;;17.48;14.27;;;18.40;99.90;;;;;;5033133;28;20125;-84
2021/06/23 11:15:31;;;;;;;19.63;14.43;;;18.30;99.90;;;;;;5008791;28;20033;-83
2021/06/23 11:18:15;;;;;;;21.17;14.50;;;18.10;99.90;;;;;;5014924;28;20044;-84
2021/06/23 11:20:42;;;;;;;15.50;13.63;;;18.50;99.90;;;;;;5016081;28;20136;-83
2021/06/23 11:23:44;;;;;;;18.70;14.02;;;18.80;99.90;;;;;;5019805;28;20076;-84
2021/06/23 11:26:19;;;;;;;18.95;13.48;;;18.70;99.90;;;;;;5036425;28;20018;-86
2021/06/23 11:28:46;;;;;;;21.23;15.13;;;18.80;99.90;;;;;;5029387;28;20037;-85
2021/06/23 11:31:12;;;;;;;18.67;14.07;;;18.50;99.90;;;;;;5024996;28;20026;-83
2021/06/23 11:33:38;;;;;;;23.30;14.98;;;18.50;99.90;;;;;;5015639;28;20026;-82
2021/06/23 11:36:05;;;;;;;23.27;16.08;;;18.50;99.90;;;;;;5012627;28;20463;-85
2021/06/23 11:38:31;;;;;;;26.52;14.88;;;18.40;99.90;;;;;;5010828;28;20389;-84
2021/06/23 11:40:58;;;;;;;19.13;15.38;;;18.60;99.90;;;;;;5011877;28;20057;-89
2021/06/23 11:43:25;;;;;;;25.95;16.20;;;18.50;99.90;;;;;;5011636;28;20618;-84
2021/06/23 11:45:51;;;;;;;22.63;15.65;;;18.60;99.90;;;;;;5026541;28;20049;-84
2021/06/23 11:48:18;;;;;;;19.27;14.82;;;18.60;99.90;;;;;;5023163;28;20025;-83
2021/06/23 11:50:46;;;;;;;19.92;14.88;;;18.50;99.90;;;;;;5004921;28;20109;-83
2021/06/23 11:53:14;;;;;;;23.05;16.58;;;18.70;99.90;;;;;;5013205;28;20036;-81
2021/06/23 11:55:41;;;;;;;19.13;15.05;;;18.70;99.90;;;;;;5014504;28;20032;-82
2021/06/23 11:58:07;;;;;;;18.98;14.50;;;19.00;99.90;;;;;;5013383;28;20034;-84
2021/06/23 12:00:35;;;;;;;19.80;14.23;;;19.40;99.90;;;;;;5010185;28;20072;-82
2021/06/23 12:03:01;;;;;;;16.80;13.88;;;19.50;99.90;;;;;;5010787;28;20080;-83
2021/06/23 12:05:28;;;;;;;19.85;13.90;;;19.40;99.90;;;;;;5028666;28;20053;-83
2021/06/23 12:07:54;;;;;;;18.17;14.25;;;19.40;99.90;;;;;;5028522;28;20485;-86
2021/06/23 12:10:22;;;;;;;18.00;12.65;;;19.30;99.90;;;;;;5020646;28;20028;-85
2021/06/23 12:12:49;;;;;;;19.83;12.82;;;19.40;99.90;;;;;;5033497;28;20436;-85
2021/06/23 12:15:20;;;;;;;19.65;14.27;;;19.40;99.90;;;;;;5010967;28;20105;-85
2021/06/23 12:17:50;;;;;;;15.13;12.32;;;19.70;99.90;;;;;;5010775;28;20040;-86
2021/06/23 12:20:17;;;;;;;13.82;11.05;;;20.30;99.90;;;;;;5016870;28;20073;-86
2021/06/23 12:22:43;;;;;;;14.25;10.85;;;20.80;99.90;;;;;;5011600;28;20034;-85
2021/06/23 12:25:11;;;;;;;15.27;11.32;;;21.20;99.90;;;;;;5008909;28;20031;-86
2021/06/23 12:27:38;;;;;;;17.77;12.82;;;21.30;99.90;;;;;;5021901;28;20033;-83
2021/06/23 12:30:05;;;;;;;17.83;13.55;;;20.90;99.90;;;;;;5013228;28;20022;-86
2021/06/23 12:32:31;;;;;;;18.98;13.75;;;20.30;99.90;;;;;;5007957;28;20034;-87
2021/06/23 12:34:58;;;;;;;16.30;13.90;;;19.90;99.90;;;;;;4998298;28;20531;-86
2021/06/23 12:37:24;;;;;;;17.35;14.80;;;19.50;99.90;;;;;;5012992;28;20404;-85
2021/06/23 12:39:50;;;;;;;20.13;14.00;;;19.20;99.90;;;;;;5028633;28;20018;-84
2021/06/23 12:42:15;;;;;;;21.40;15.00;;;19.30;99.90;;;;;;5010384;28;20062;-83
2021/06/23 12:44:42;;;;;;;20.02;13.40;;;19.50;99.90;;;;;;5011317;28;20022;-86
2021/06/23 12:47:08;;;;;;;19.40;13.57;;;19.70;99.90;;;;;;5016276;28;20428;-85
2021/06/23 12:49:34;;;;;;;16.65;13.38;;;19.80;99.90;;;;;;5014818;28;20411;-85
2021/06/23 12:51:59;;;;;;;15.15;12.63;;;19.60;99.90;;;;;;5014345;28;20109;-84
2021/06/23 12:54:26;;;;;;;19.17;13.48;;;19.50;99.90;;;;;;5033313;28;20026;-85
2021/06/23 12:56:52;;;;;;;20.67;13.68;;;19.40;99.90;;;;;;5018182;28;20029;-87
2021/06/23 12:59:18;;;;;;;18.30;14.20;;;19.10;99.90;;;;;;5017172;28;20124;-87
2021/06/23 13:01:44;;;;;;;17.08;13.82;;;19.00;99.90;;;;;;5018891;28;20033;-85